Milngavie, United Kingdom
Current Conditions -  °F | °C
As of 11:50 AM on Wednesday 28 Jan 2015 (Local Time) from EGPF Reporting Station
Light Rain Light Rain  
Wind Chill: 26°   Ceiling: 1700
Heat Index: 37°   Visibility: 6mi
Dew Point: 34°   Wind: 24mph
Humidity: 87%   Direction: 280°W
Pressure: 29.23"   Gusts: 37mph
Location:  55.94°N, 4.32°W
Report Text: EGPF 281150Z AUTO 28021G32KT 9999 -RA FEW007/// BKN017/// //////TCU 03/01 Q0990
Loading
Personal Weather Stations






























Interactive Weather Map New forecast layout! Learn more

10-Day Weather Forecast

Advertisements
Track Severe Weather on mobile